< < Back
Terminal Aerodrome Forecast


Current Version              Previous Versions:   1  2  3  4  5  6  7  8  9  

Terminal Aerodrome Forecast

194
FTUS42 KMLB 172300
TAFDAB
TAF
KDAB 172331Z 1800/1824 06012G18KT P6SM SCT025 BKN060
     FM180300 07011KT P6SM VCSH SCT010 OVC020
      TEMPO 1809/1813 5SM -RA BR OVC010
     FM181400 12012G20KT P6SM VCSH SCT015 BKN035 OVC060=

Latest METAR

814
SAUS80 KWBC 181300 RRB
MTRDAB
METAR KDAB 181253Z 08010KT 9SM -RA BKN022 BKN030 OVC042 23/20 A3009 RMK
AO2 RAB49 SLP187 P0000 T02280200


USA.gov is the U.S. government's official web portal to all federal, state and local government web resources and services.